createdAt,value
2023-06-25T00:00:35.538Z,1.30
2023-06-25T00:03:03.320Z,1.45
2023-06-25T00:05:30.829Z,1.10
2023-06-25T00:07:58.620Z,1.50
2023-06-25T00:10:26.072Z,1.45
2023-06-25T00:12:53.485Z,1.10
2023-06-25T00:15:21.001Z,1.50
2023-06-25T00:17:49.010Z,1.48
2023-06-25T00:20:18.597Z,1.17
2023-06-25T00:23:04.927Z,1.38
2023-06-25T00:25:34.069Z,1.67
2023-06-25T00:28:02.329Z,1.48
2023-06-25T00:30:30.405Z,1.50
2023-06-25T00:32:58.066Z,1.70
2023-06-25T00:35:28.668Z,1.50
2023-06-25T00:37:58.145Z,1.20
2023-06-25T00:40:26.728Z,1.42
2023-06-25T00:43:00.186Z,1.25
2023-06-25T00:45:28.091Z,1.20
2023-06-25T00:47:56.390Z,1.42
2023-06-25T00:50:24.937Z,1.20
2023-06-25T00:52:53.372Z,1.15
2023-06-25T00:55:21.575Z,1.30
2023-06-25T00:57:49.451Z,1.08
2023-06-25T01:00:21.121Z,1.48
2023-06-25T01:03:05.380Z,1.27
2023-06-25T01:05:40.231Z,1.15
2023-06-25T01:08:12.647Z,1.30
2023-06-25T01:10:40.522Z,1.20
2023-06-25T01:13:08.136Z,1.10
2023-06-25T01:15:36.072Z,1.50
2023-06-25T01:18:05.909Z,1.45
2023-06-25T01:20:33.613Z,1.50
2023-06-25T01:23:01.236Z,1.50
2023-06-25T01:25:28.723Z,1.27
2023-06-25T01:27:56.185Z,2.08
2023-06-25T01:30:26.582Z,1.15
2023-06-25T01:32:54.294Z,1.20
2023-06-25T01:35:21.782Z,1.30
2023-06-25T01:37:49.242Z,1.52
2023-06-25T01:40:17.616Z,0.95
2023-06-25T01:42:45.170Z,1.00
2023-06-25T01:45:12.948Z,1.30
2023-06-25T01:47:42.460Z,1.30
2023-06-25T01:50:10.263Z,1.38
2023-06-25T01:52:39.234Z,1.00
2023-06-25T01:55:07.401Z,1.05
2023-06-25T01:57:34.832Z,1.33
2023-06-25T02:00:02.505Z,1.10
2023-06-25T02:02:30.483Z,1.30
2023-06-25T02:04:58.105Z,1.30
2023-06-25T02:07:25.595Z,1.10
2023-06-25T02:09:53.200Z,1.00
2023-06-25T02:12:20.772Z,1.30
2023-06-25T02:14:48.212Z,1.10
2023-06-25T02:17:15.710Z,1.30
2023-06-25T02:19:43.188Z,1.02
2023-06-25T02:22:10.646Z,0.90
2023-06-25T02:24:38.111Z,1.10
2023-06-25T02:27:06.156Z,1.60
2023-06-25T02:29:33.656Z,1.40
2023-06-25T02:32:01.076Z,1.10
2023-06-25T02:34:28.643Z,1.10
2023-06-25T02:36:56.117Z,1.50
2023-06-25T02:39:23.640Z,1.00
2023-06-25T02:41:51.179Z,1.20
2023-06-25T02:44:18.680Z,1.25
2023-06-25T02:46:46.411Z,1.30
2023-06-25T02:49:14.464Z,1.20
2023-06-25T02:51:42.114Z,1.08
2023-06-25T02:54:09.762Z,1.30
2023-06-25T02:56:37.615Z,1.17
2023-06-25T02:59:05.052Z,1.20
2023-06-25T03:01:32.726Z,1.17
2023-06-25T03:04:00.313Z,1.38
2023-06-25T03:06:27.785Z,1.20
2023-06-25T03:08:55.355Z,1.00
2023-06-25T03:11:22.790Z,1.33
2023-06-25T03:13:50.418Z,1.48
2023-06-25T03:16:17.860Z,1.10
2023-06-25T03:18:45.808Z,1.30
2023-06-25T03:21:13.477Z,1.20
2023-06-25T03:23:41.797Z,1.15
2023-06-25T03:26:09.373Z,1.20
2023-06-25T03:28:37.007Z,1.02
2023-06-25T03:31:04.757Z,1.35
2023-06-25T03:33:40.970Z,1.30
2023-06-25T03:36:09.303Z,1.40
2023-06-25T03:38:36.779Z,1.33
2023-06-25T03:41:04.498Z,1.30
2023-06-25T03:43:32.465Z,1.35
2023-06-25T03:46:00.170Z,1.80
2023-06-25T03:48:28.145Z,1.58
2023-06-25T03:50:55.728Z,1.40
2023-06-25T03:53:23.279Z,1.20
2023-06-25T03:55:50.866Z,1.50
2023-06-25T03:58:18.381Z,1.08
2023-06-25T04:00:46.226Z,1.20
2023-06-25T04:03:13.916Z,1.58
2023-06-25T04:05:41.532Z,1.73
2023-06-25T04:08:09.819Z,1.63
2023-06-25T04:10:37.581Z,1.80
2023-06-25T04:13:05.094Z,1.98
2023-06-25T04:15:32.675Z,2.28
2023-06-25T04:18:00.284Z,1.70
2023-06-25T04:20:29.106Z,2.05
2023-06-25T04:22:56.631Z,1.60
2023-06-25T04:25:24.331Z,1.80
2023-06-25T04:27:56.147Z,1.95
2023-06-25T04:30:23.819Z,1.48
2023-06-25T04:32:52.465Z,1.55
2023-06-25T04:35:23.104Z,1.88
2023-06-25T04:37:50.860Z,1.23
2023-06-25T04:40:18.882Z,1.80
2023-06-25T04:42:46.545Z,1.52
2023-06-25T04:45:15.503Z,1.20
2023-06-25T04:47:43.100Z,1.30
2023-06-25T04:50:11.297Z,1.20
2023-06-25T04:52:38.814Z,1.92
2023-06-25T04:55:07.171Z,1.30
2023-06-25T04:57:34.591Z,1.27
2023-06-25T05:00:02.045Z,1.02
2023-06-25T05:02:29.523Z,1.17
2023-06-25T05:04:56.987Z,1.10
2023-06-25T05:07:24.860Z,1.20
2023-06-25T05:09:52.179Z,1.25
2023-06-25T05:12:19.679Z,1.10
2023-06-25T05:14:47.165Z,1.10
2023-06-25T05:17:14.728Z,1.50
2023-06-25T05:19:42.233Z,1.23
2023-06-25T05:22:09.759Z,1.55
2023-06-25T05:24:37.216Z,1.30
2023-06-25T05:27:05.097Z,1.50
2023-06-25T05:29:32.593Z,1.85
2023-06-25T05:32:00.267Z,1.40
2023-06-25T05:34:27.796Z,1.65
2023-06-25T05:36:55.438Z,1.85
2023-06-25T05:39:29.768Z,1.30
2023-06-25T05:41:58.973Z,1.35
2023-06-25T05:44:27.299Z,1.50
2023-06-25T05:46:56.160Z,1.40
2023-06-25T05:49:24.113Z,1.20
2023-06-25T05:51:52.304Z,1.30
2023-06-25T05:54:19.769Z,1.13
2023-06-25T05:56:47.252Z,1.25
2023-06-25T05:59:14.758Z,1.40
2023-06-25T06:01:42.212Z,1.20
2023-06-25T06:04:09.636Z,1.05
2023-06-25T06:06:37.066Z,1.60
2023-06-25T06:09:04.511Z,1.05
2023-06-25T06:11:32.581Z,1.20
2023-06-25T06:14:00.085Z,1.00
2023-06-25T06:16:27.592Z,0.98
2023-06-25T06:18:55.097Z,1.00
2023-06-25T06:21:22.518Z,1.10
2023-06-25T06:23:50.038Z,1.00
2023-06-25T06:26:17.586Z,1.17
2023-06-25T06:28:45.239Z,1.20
2023-06-25T06:31:12.800Z,1.05
2023-06-25T06:33:40.334Z,1.38
2023-06-25T06:36:07.836Z,1.50
2023-06-25T06:38:35.290Z,1.35
2023-06-25T06:41:02.762Z,1.73
2023-06-25T06:43:30.750Z,1.80
2023-06-25T06:45:58.435Z,1.40
2023-06-25T06:48:25.905Z,1.52
2023-06-25T06:50:53.476Z,1.90
2023-06-25T06:53:20.898Z,1.85
2023-06-25T06:55:48.382Z,1.70
2023-06-25T06:58:15.918Z,1.83
2023-06-25T07:00:43.545Z,2.20
2023-06-25T07:03:11.013Z,1.75
2023-06-25T07:05:38.711Z,1.92
2023-06-25T07:08:06.710Z,1.63
2023-06-25T07:10:34.224Z,1.80
2023-06-25T07:13:01.686Z,2.03
2023-06-25T07:15:29.126Z,2.00
2023-06-25T07:17:56.925Z,2.03
2023-06-25T07:20:24.421Z,2.03
2023-06-25T07:22:52.120Z,2.00
2023-06-25T07:25:19.593Z,2.00
2023-06-25T07:27:47.093Z,2.10
2023-06-25T07:30:14.784Z,2.58
2023-06-25T07:32:42.280Z,2.00
2023-06-25T07:35:10.111Z,2.20
2023-06-25T07:37:38.753Z,2.53
2023-06-25T07:40:07.268Z,2.17
2023-06-25T07:42:34.769Z,1.80
2023-06-25T07:45:02.303Z,2.00
2023-06-25T07:47:30.023Z,1.80
2023-06-25T07:49:57.515Z,2.00
2023-06-25T07:52:25.013Z,2.10
2023-06-25T07:54:52.515Z,1.83
2023-06-25T07:57:19.944Z,2.20
2023-06-25T07:59:54.030Z,1.77
2023-06-25T08:02:22.730Z,1.95
2023-06-25T08:04:51.221Z,1.90
2023-06-25T08:07:19.008Z,2.10
2023-06-25T08:09:47.548Z,2.30
2023-06-25T08:12:15.992Z,1.98
2023-06-25T08:14:44.510Z,2.25
2023-06-25T08:17:12.188Z,2.10
2023-06-25T08:19:39.723Z,1.95
2023-06-25T08:22:07.250Z,2.00
2023-06-25T08:24:34.866Z,2.45
2023-06-25T08:27:02.365Z,2.08
2023-06-25T08:29:30.662Z,3.20
2023-06-25T08:31:58.605Z,1.98
2023-06-25T08:34:26.159Z,2.28
2023-06-25T08:36:53.701Z,5.82
2023-06-25T08:39:21.222Z,2.25
2023-06-25T08:41:50.481Z,2.10
2023-06-25T08:44:17.961Z,2.30
2023-06-25T08:46:48.820Z,4.78
2023-06-25T08:49:17.871Z,2.22
2023-06-25T08:51:45.494Z,1.85
2023-06-25T08:54:13.216Z,1.98
2023-06-25T08:56:41.095Z,1.80
2023-06-25T08:59:08.607Z,2.28
2023-06-25T09:01:36.501Z,2.17
2023-06-25T09:04:03.947Z,2.03
2023-06-25T09:06:50.798Z,2.40
2023-06-25T09:09:26.353Z,1.98
2023-06-25T09:11:54.964Z,2.03
2023-06-25T09:14:22.435Z,2.20
2023-06-25T09:16:51.417Z,2.05
2023-06-25T09:19:22.592Z,2.38
2023-06-25T09:21:50.518Z,2.07
2023-06-25T09:24:20.368Z,2.08
2023-06-25T09:26:53.495Z,2.13
2023-06-25T09:29:22.903Z,2.45
2023-06-25T09:31:50.887Z,2.28
2023-06-25T09:34:19.701Z,2.10
2023-06-25T09:36:47.590Z,2.28
2023-06-25T09:39:15.161Z,2.25
2023-06-25T09:41:43.355Z,2.28
2023-06-25T09:44:11.702Z,2.40
2023-06-25T09:46:40.925Z,2.13
2023-06-25T09:49:09.004Z,2.35
2023-06-25T09:51:59.984Z,2.25
2023-06-25T09:54:29.418Z,2.28
2023-06-25T09:57:01.267Z,2.60
2023-06-25T09:59:28.998Z,3.38
2023-06-25T10:01:56.556Z,2.30
2023-06-25T10:04:24.298Z,2.70
2023-06-25T10:06:52.184Z,2.22
2023-06-25T10:09:19.749Z,2.33
2023-06-25T10:11:55.750Z,2.20
2023-06-25T10:14:24.225Z,2.10
2023-06-25T10:16:56.669Z,2.28
2023-06-25T10:19:25.899Z,2.10
2023-06-25T10:22:25.600Z,2.15
2023-06-25T10:24:55.638Z,2.15
2023-06-25T10:27:32.447Z,2.30
2023-06-25T10:30:00.071Z,2.25
2023-06-25T10:32:30.019Z,2.10
2023-06-25T10:35:01.434Z,2.13
2023-06-25T10:37:32.952Z,2.40
2023-06-25T10:40:08.728Z,2.35
2023-06-25T10:42:40.039Z,2.47
2023-06-25T10:45:08.529Z,2.25
2023-06-25T10:47:36.359Z,2.17
2023-06-25T10:50:04.091Z,2.47
2023-06-25T10:52:31.705Z,2.80
2023-06-25T10:55:01.697Z,2.10
2023-06-25T10:57:32.749Z,2.35
2023-06-25T11:00:00.635Z,2.22
2023-06-25T11:02:28.202Z,2.22
2023-06-25T11:04:57.840Z,2.03
2023-06-25T11:07:28.962Z,2.30
2023-06-25T11:10:00.769Z,2.17
2023-06-25T11:12:30.696Z,2.40
2023-06-25T11:15:00.026Z,2.17
2023-06-25T11:17:28.111Z,2.42
2023-06-25T11:19:57.573Z,2.42
2023-06-25T11:22:27.451Z,2.22
2023-06-25T11:24:55.087Z,2.33
2023-06-25T11:27:28.227Z,2.45
2023-06-25T11:29:55.899Z,2.38
2023-06-25T11:32:25.386Z,2.20
2023-06-25T11:34:52.953Z,2.33
2023-06-25T11:37:20.714Z,2.45
2023-06-25T11:39:52.941Z,2.30
2023-06-25T11:42:25.311Z,2.70
2023-06-25T11:44:59.847Z,2.40
2023-06-25T11:47:27.534Z,2.97
2023-06-25T11:49:59.591Z,2.33
2023-06-25T11:54:54.467Z,2.35
2023-06-25T11:57:21.962Z,2.47
2023-06-25T11:59:49.805Z,2.17
2023-06-25T12:02:17.286Z,2.40
2023-06-25T12:04:44.788Z,2.30
2023-06-25T12:07:12.290Z,2.55
2023-06-25T12:09:39.903Z,2.22
2023-06-25T12:12:07.792Z,2.40
2023-06-25T12:14:35.207Z,2.20
2023-06-25T12:17:03.854Z,2.40
2023-06-25T12:19:31.341Z,3.00
2023-06-25T12:21:59.831Z,2.63
2023-06-25T12:24:27.269Z,2.30
2023-06-25T12:26:55.892Z,2.35
2023-06-25T12:29:23.422Z,2.17
2023-06-25T12:31:50.896Z,2.55
2023-06-25T12:34:18.440Z,2.25
2023-06-25T12:36:45.916Z,3.20
2023-06-25T12:39:13.400Z,2.30
2023-06-25T12:41:40.985Z,2.30
2023-06-25T12:44:08.521Z,2.30
2023-06-25T12:46:36.002Z,2.75
2023-06-25T12:49:03.523Z,2.90
2023-06-25T12:51:31.070Z,2.28
2023-06-25T12:53:58.581Z,2.25
2023-06-25T12:56:28.251Z,2.65
2023-06-25T12:58:55.790Z,2.35
2023-06-25T13:01:23.455Z,2.30
2023-06-25T13:03:52.360Z,2.30
2023-06-25T13:06:21.575Z,2.60
2023-06-25T13:08:49.073Z,2.53
2023-06-25T13:11:16.730Z,2.38
2023-06-25T13:13:44.406Z,2.70
2023-06-25T13:16:13.539Z,2.53
2023-06-25T13:18:42.538Z,2.50
2023-06-25T13:21:10.592Z,2.33
2023-06-25T13:23:38.997Z,2.60
2023-06-25T13:26:06.452Z,2.38
2023-06-25T13:28:33.997Z,2.60
2023-06-25T13:31:01.469Z,2.50
2023-06-25T13:33:30.333Z,2.58
2023-06-25T13:35:58.056Z,2.42
2023-06-25T13:38:25.523Z,2.15
2023-06-25T13:40:53.104Z,2.28
2023-06-25T13:43:20.577Z,2.40
2023-06-25T13:45:48.127Z,2.30
2023-06-25T13:48:15.685Z,2.40
2023-06-25T13:50:43.233Z,2.88
2023-06-25T13:53:10.714Z,2.47
2023-06-25T13:55:38.446Z,2.40
2023-06-25T13:58:06.099Z,2.40
2023-06-25T14:00:33.564Z,2.42
2023-06-25T14:03:11.093Z,2.55
2023-06-25T14:05:40.138Z,2.45
2023-06-25T14:08:08.241Z,2.35
2023-06-25T14:10:35.797Z,2.55
2023-06-25T14:13:04.084Z,2.20
2023-06-25T14:15:31.530Z,2.10
2023-06-25T14:17:58.960Z,2.42
2023-06-25T14:20:26.444Z,2.30
2023-06-25T14:22:53.903Z,2.17
2023-06-25T14:25:21.434Z,2.60
2023-06-25T14:27:48.831Z,2.20
2023-06-25T14:30:17.324Z,2.17
2023-06-25T14:32:44.820Z,2.50
2023-06-25T14:35:12.335Z,2.40
2023-06-25T14:37:39.829Z,2.45
2023-06-25T14:40:08.278Z,2.17
2023-06-25T14:42:36.209Z,2.65
2023-06-25T14:45:05.246Z,2.40
2023-06-25T14:47:33.674Z,2.60
2023-06-25T14:50:01.732Z,2.58
2023-06-25T14:52:29.295Z,2.30
2023-06-25T14:54:56.751Z,3.00
2023-06-25T14:57:24.285Z,2.58
2023-06-25T14:59:52.284Z,4.40
2023-06-25T15:02:20.198Z,2.80
2023-06-25T15:04:49.693Z,2.95
2023-06-25T15:07:21.296Z,2.38
2023-06-25T15:09:48.834Z,2.78
2023-06-25T15:12:16.293Z,2.80
2023-06-25T15:14:45.525Z,2.65
2023-06-25T15:17:13.331Z,2.78
2023-06-25T15:19:40.816Z,2.67
2023-06-25T15:22:08.284Z,2.42
2023-06-25T15:24:35.769Z,2.42
2023-06-25T15:27:03.448Z,2.63
2023-06-25T15:29:31.032Z,2.85
2023-06-25T15:31:59.856Z,2.55
2023-06-25T15:34:27.477Z,2.65
2023-06-25T15:36:54.932Z,2.45
2023-06-25T15:39:22.393Z,2.63
2023-06-25T15:41:50.039Z,2.40
2023-06-25T15:44:17.569Z,2.65
2023-06-25T15:46:45.045Z,2.50
2023-06-25T15:49:12.544Z,2.50
2023-06-25T15:51:42.153Z,2.75
2023-06-25T15:54:24.963Z,2.45
2023-06-25T15:56:53.562Z,2.38
2023-06-25T15:59:21.471Z,2.63
2023-06-25T16:01:49.168Z,2.70
2023-06-25T16:04:16.798Z,2.28
2023-06-25T16:06:44.327Z,2.60
2023-06-25T16:09:11.784Z,2.42
2023-06-25T16:11:39.703Z,2.78
2023-06-25T16:14:07.295Z,2.30
2023-06-25T16:16:35.282Z,2.60
2023-06-25T16:21:35.317Z,2.42
2023-06-25T16:24:02.770Z,2.42
2023-06-25T16:26:30.263Z,2.90
2023-06-25T16:28:57.694Z,2.70
2023-06-25T16:31:25.222Z,2.75
2023-06-25T16:33:52.724Z,2.38
2023-06-25T16:36:20.190Z,2.50
2023-06-25T16:38:47.721Z,2.50
2023-06-25T16:41:15.570Z,2.38
2023-06-25T16:43:42.998Z,2.72
2023-06-25T16:46:10.478Z,2.38
2023-06-25T16:48:38.008Z,2.45
2023-06-25T16:51:05.518Z,2.50
2023-06-25T16:53:33.140Z,2.65
2023-06-25T16:56:00.659Z,3.00
2023-06-25T16:58:28.109Z,2.75
2023-06-25T17:00:55.564Z,2.60
2023-06-25T17:03:23.265Z,2.40
2023-06-25T17:05:50.999Z,2.60
2023-06-25T17:08:18.499Z,2.63
2023-06-25T17:10:45.974Z,2.83
2023-06-25T17:13:13.505Z,2.83
2023-06-25T17:15:40.972Z,3.17
2023-06-25T17:18:08.471Z,2.70
2023-06-25T17:20:35.982Z,2.63
2023-06-25T17:23:05.693Z,2.53
2023-06-25T17:25:33.165Z,2.47
2023-06-25T17:28:00.704Z,2.42
2023-06-25T17:30:28.119Z,2.85
2023-06-25T17:32:55.721Z,2.50
2023-06-25T17:35:26.304Z,2.70
2023-06-25T17:37:53.806Z,2.50
2023-06-25T17:40:21.306Z,2.70
2023-06-25T17:42:48.788Z,2.42
2023-06-25T17:45:16.310Z,2.75
2023-06-25T17:47:46.817Z,4.93
2023-06-25T17:50:14.459Z,4.30
2023-06-25T17:52:41.930Z,4.93
2023-06-25T17:55:09.650Z,7.93
2023-06-25T17:57:37.093Z,8.52
2023-06-25T18:00:05.616Z,7.43
2023-06-25T18:02:41.896Z,10.65
2023-06-25T18:05:10.273Z,5.78
2023-06-25T18:07:37.766Z,6.70
2023-06-25T18:10:05.611Z,6.82
2023-06-25T18:12:34.080Z,7.50
2023-06-25T18:15:01.808Z,6.53
2023-06-25T18:17:29.369Z,7.53
2023-06-25T18:19:56.896Z,8.60
2023-06-25T18:22:24.381Z,6.72
2023-06-25T18:24:51.852Z,9.35
2023-06-25T18:27:20.855Z,7.75
2023-06-25T18:29:48.282Z,9.38
2023-06-25T18:32:15.733Z,7.78
2023-06-25T18:34:43.450Z,5.43
2023-06-25T18:37:10.895Z,7.07
2023-06-25T18:39:38.353Z,6.75
2023-06-25T18:42:06.051Z,8.48
2023-06-25T18:44:33.551Z,7.03
2023-06-25T18:47:01.078Z,10.80
2023-06-25T18:49:28.564Z,10.02
2023-06-25T18:51:56.045Z,6.45
2023-06-25T18:54:25.520Z,7.10
2023-06-25T18:56:52.997Z,8.95
2023-06-25T18:59:20.468Z,8.77
2023-06-25T19:01:47.965Z,7.03
2023-06-25T19:04:16.013Z,5.72
2023-06-25T19:06:43.549Z,9.52
2023-06-25T19:09:12.395Z,10.60
2023-06-25T19:11:39.877Z,7.53
2023-06-25T19:14:07.797Z,6.00
2023-06-25T19:16:35.281Z,10.30
2023-06-25T19:19:02.748Z,8.85
2023-06-25T19:21:30.197Z,6.85
2023-06-25T19:23:57.703Z,6.50
2023-06-25T19:26:25.328Z,11.15
2023-06-25T19:28:52.939Z,4.60
2023-06-25T19:31:20.401Z,4.07
2023-06-25T19:33:47.917Z,4.00
2023-06-25T19:36:15.396Z,3.70
2023-06-25T19:38:42.972Z,4.20
2023-06-25T19:41:10.509Z,4.10
2023-06-25T19:43:39.127Z,6.13
2023-06-25T19:46:08.135Z,4.68
2023-06-25T19:48:35.882Z,4.55
2023-06-25T19:51:03.597Z,4.32
2023-06-25T19:53:33.701Z,4.75
2023-06-25T19:56:01.362Z,5.35
2023-06-25T19:58:28.886Z,4.70
2023-06-25T20:00:56.392Z,4.15
2023-06-25T20:03:23.917Z,4.45
2023-06-25T20:05:51.483Z,4.68
2023-06-25T20:08:19.064Z,4.00
2023-06-25T20:10:46.779Z,4.57
2023-06-25T20:13:14.378Z,5.22
2023-06-25T20:15:41.934Z,4.80
2023-06-25T20:18:09.411Z,4.95
2023-06-25T20:20:37.190Z,5.75
2023-06-25T20:23:04.938Z,4.88
2023-06-25T20:25:32.416Z,4.80
2023-06-25T20:27:59.871Z,4.90
2023-06-25T20:30:27.365Z,4.60
2023-06-25T20:32:55.453Z,4.45
2023-06-25T20:35:23.132Z,4.22
2023-06-25T20:37:50.683Z,4.82
2023-06-25T20:40:18.350Z,3.92
2023-06-25T20:42:45.844Z,4.07
2023-06-25T20:45:13.469Z,5.20
2023-06-25T20:47:42.543Z,5.05
2023-06-25T20:50:10.643Z,5.35
2023-06-25T20:52:38.218Z,4.43
2023-06-25T20:55:05.966Z,4.88
2023-06-25T20:57:33.458Z,4.28
2023-06-25T21:00:00.956Z,4.85
2023-06-25T21:02:28.483Z,4.25
2023-06-25T21:04:55.995Z,4.63
2023-06-25T21:07:23.473Z,4.65
2023-06-25T21:09:51.060Z,4.63
2023-06-25T21:12:18.692Z,4.53
2023-06-25T21:14:46.194Z,4.07
2023-06-25T21:17:13.686Z,4.03
2023-06-25T21:19:42.373Z,4.10
2023-06-25T21:22:09.840Z,4.00
2023-06-25T21:24:37.270Z,3.90
2023-06-25T21:27:04.908Z,4.18
2023-06-25T21:29:32.505Z,4.15
2023-06-25T21:31:59.925Z,6.13
2023-06-25T21:34:27.371Z,4.00
2023-06-25T21:36:54.820Z,4.13
2023-06-25T21:39:22.364Z,3.80
2023-06-25T21:41:49.763Z,3.90
2023-06-25T21:44:17.331Z,3.80
2023-06-25T21:46:44.878Z,3.42
2023-06-25T21:49:12.365Z,4.18
2023-06-25T21:51:39.857Z,3.70
2023-06-25T21:54:07.326Z,3.72
2023-06-25T21:56:34.772Z,3.85
2023-06-25T21:59:02.633Z,3.80
2023-06-25T22:01:30.146Z,3.65
2023-06-25T22:03:57.711Z,3.60
2023-06-25T22:06:25.210Z,3.58
2023-06-25T22:08:53.021Z,3.45
2023-06-25T22:11:20.468Z,3.95
2023-06-25T22:13:47.943Z,3.55
2023-06-25T22:16:15.833Z,3.60
2023-06-25T22:18:43.434Z,3.65
2023-06-25T22:21:10.920Z,3.65
2023-06-25T22:23:39.128Z,3.67
2023-06-25T22:26:06.582Z,3.92
2023-06-25T22:28:34.088Z,4.22
2023-06-25T22:31:01.542Z,4.13
2023-06-25T22:33:29.170Z,4.22
2023-06-25T22:35:56.699Z,4.00
2023-06-25T22:38:24.274Z,3.78
2023-06-25T22:40:51.834Z,4.18
2023-06-25T22:43:19.318Z,3.67
2023-06-25T22:45:46.866Z,3.97
2023-06-25T22:48:14.414Z,3.80
2023-06-25T22:50:41.892Z,3.60
2023-06-25T22:53:10.932Z,4.00
2023-06-25T22:55:38.499Z,4.47
2023-06-25T22:58:08.100Z,3.83
2023-06-25T23:00:37.459Z,4.05
2023-06-25T23:03:05.327Z,3.67
2023-06-25T23:05:32.828Z,3.60
2023-06-25T23:08:00.356Z,4.05
2023-06-25T23:10:27.871Z,4.35
2023-06-25T23:12:57.872Z,3.88
2023-06-25T23:15:25.488Z,4.32
2023-06-25T23:17:53.018Z,4.43
2023-06-25T23:20:20.791Z,4.40
2023-06-25T23:22:50.093Z,4.18
2023-06-25T23:25:29.154Z,4.40
2023-06-25T23:27:58.614Z,4.00
2023-06-25T23:30:27.358Z,3.88
2023-06-25T23:32:55.173Z,4.05
2023-06-25T23:35:22.648Z,4.22
2023-06-25T23:37:50.609Z,4.30
2023-06-25T23:40:18.057Z,4.07
2023-06-25T23:42:45.568Z,4.53
2023-06-25T23:45:13.112Z,4.60
2023-06-25T23:47:40.746Z,4.57
2023-06-25T23:50:08.472Z,4.47
2023-06-25T23:52:36.064Z,4.25
2023-06-25T23:55:03.505Z,4.65
2023-06-25T23:57:31.006Z,4.32
2023-06-25T23:59:58.461Z,4.35
